sensor_id;sensor_type;location;lat;lon;timestamp;temperature;humidity
32506;DHT22;18955;51.224;8.482;2023-07-31T00:00:41;15.60;83.70
32506;DHT22;18955;51.224;8.482;2023-07-31T00:03:07;15.60;83.90
32506;DHT22;18955;51.224;8.482;2023-07-31T00:05:33;15.60;83.80
32506;DHT22;18955;51.224;8.482;2023-07-31T00:07:59;15.50;83.90
32506;DHT22;18955;51.224;8.482;2023-07-31T00:10:26;15.50;83.70
32506;DHT22;18955;51.224;8.482;2023-07-31T00:12:52;15.50;83.70
32506;DHT22;18955;51.224;8.482;2023-07-31T00:15:18;15.50;83.80
32506;DHT22;18955;51.224;8.482;2023-07-31T00:17:44;15.50;83.80
32506;DHT22;18955;51.224;8.482;2023-07-31T00:20:10;15.50;83.40
32506;DHT22;18955;51.224;8.482;2023-07-31T00:22:37;15.50;83.70
32506;DHT22;18955;51.224;8.482;2023-07-31T00:25:03;15.50;83.80
32506;DHT22;18955;51.224;8.482;2023-07-31T00:27:32;15.40;83.70
32506;DHT22;18955;51.224;8.482;2023-07-31T00:29:58;15.50;83.70
32506;DHT22;18955;51.224;8.482;2023-07-31T00:32:25;15.50;84.00
32506;DHT22;18955;51.224;8.482;2023-07-31T00:34:52;15.50;84.00
32506;DHT22;18955;51.224;8.482;2023-07-31T00:37:18;15.40;84.00
32506;DHT22;18955;51.224;8.482;2023-07-31T00:39:44;15.40;84.30
32506;DHT22;18955;51.224;8.482;2023-07-31T00:42:11;15.40;84.00
32506;DHT22;18955;51.224;8.482;2023-07-31T00:44:37;15.40;84.00
32506;DHT22;18955;51.224;8.482;2023-07-31T00:47:04;15.40;84.00
32506;DHT22;18955;51.224;8.482;2023-07-31T00:49:30;15.40;84.10
32506;DHT22;18955;51.224;8.482;2023-07-31T00:51:56;15.40;84.30
32506;DHT22;18955;51.224;8.482;2023-07-31T00:54:25;15.40;84.40
32506;DHT22;18955;51.224;8.482;2023-07-31T00:56:53;15.40;84.50
32506;DHT22;18955;51.224;8.482;2023-07-31T00:59:21;15.40;84.30
32506;DHT22;18955;51.224;8.482;2023-07-31T01:01:47;15.30;84.60
32506;DHT22;18955;51.224;8.482;2023-07-31T01:04:14;15.40;84.70
32506;DHT22;18955;51.224;8.482;2023-07-31T01:09:47;15.30;84.60
32506;DHT22;18955;51.224;8.482;2023-07-31T01:12:17;15.30;84.90
32506;DHT22;18955;51.224;8.482;2023-07-31T01:17:29;15.30;84.90
32506;DHT22;18955;51.224;8.482;2023-07-31T01:19:58;15.30;84.60
32506;DHT22;18955;51.224;8.482;2023-07-31T01:31:46;15.20;85.10
32506;DHT22;18955;51.224;8.482;2023-07-31T01:34:15;15.20;85.60
32506;DHT22;18955;51.224;8.482;2023-07-31T01:36:43;15.20;85.30
32506;DHT22;18955;51.224;8.482;2023-07-31T01:39:09;15.20;85.30
32506;DHT22;18955;51.224;8.482;2023-07-31T01:41:36;15.20;85.20
32506;DHT22;18955;51.224;8.482;2023-07-31T01:44:02;15.20;84.90
32506;DHT22;18955;51.224;8.482;2023-07-31T01:46:28;15.20;84.90
32506;DHT22;18955;51.224;8.482;2023-07-31T01:48:56;15.20;84.70
32506;DHT22;18955;51.224;8.482;2023-07-31T01:51:23;15.20;85.00
32506;DHT22;18955;51.224;8.482;2023-07-31T01:53:50;15.20;85.30
32506;DHT22;18955;51.224;8.482;2023-07-31T01:56:16;15.20;85.40
32506;DHT22;18955;51.224;8.482;2023-07-31T01:58:43;15.20;85.20
32506;DHT22;18955;51.224;8.482;2023-07-31T02:01:09;15.20;85.50
32506;DHT22;18955;51.224;8.482;2023-07-31T02:03:35;15.20;85.20
32506;DHT22;18955;51.224;8.482;2023-07-31T02:06:01;15.20;85.20
32506;DHT22;18955;51.224;8.482;2023-07-31T02:08:28;15.20;85.50
32506;DHT22;18955;51.224;8.482;2023-07-31T02:10:54;15.20;85.10
32506;DHT22;18955;51.224;8.482;2023-07-31T02:13:20;15.10;85.40
32506;DHT22;18955;51.224;8.482;2023-07-31T02:15:46;15.10;85.40
32506;DHT22;18955;51.224;8.482;2023-07-31T02:18:13;15.10;85.30
32506;DHT22;18955;51.224;8.482;2023-07-31T02:20:39;15.10;85.60
32506;DHT22;18955;51.224;8.482;2023-07-31T02:23:05;15.10;85.20
32506;DHT22;18955;51.224;8.482;2023-07-31T02:25:31;15.10;85.00
32506;DHT22;18955;51.224;8.482;2023-07-31T02:27:57;15.10;85.60
32506;DHT22;18955;51.224;8.482;2023-07-31T02:30:23;15.10;85.70
32506;DHT22;18955;51.224;8.482;2023-07-31T02:32:50;15.10;85.70
32506;DHT22;18955;51.224;8.482;2023-07-31T02:35:16;15.10;85.40
32506;DHT22;18955;51.224;8.482;2023-07-31T02:37:44;15.10;85.30
32506;DHT22;18955;51.224;8.482;2023-07-31T02:40:11;15.10;85.30
32506;DHT22;18955;51.224;8.482;2023-07-31T02:42:37;15.10;85.40
32506;DHT22;18955;51.224;8.482;2023-07-31T02:45:03;15.10;85.50
32506;DHT22;18955;51.224;8.482;2023-07-31T02:47:30;15.10;85.40
32506;DHT22;18955;51.224;8.482;2023-07-31T02:49:56;15.10;85.50
32506;DHT22;18955;51.224;8.482;2023-07-31T02:52:22;15.10;85.50
32506;DHT22;18955;51.224;8.482;2023-07-31T02:54:48;15.10;85.50
32506;DHT22;18955;51.224;8.482;2023-07-31T02:57:14;15.10;85.80
32506;DHT22;18955;51.224;8.482;2023-07-31T02:59:42;15.00;85.30
32506;DHT22;18955;51.224;8.482;2023-07-31T03:02:08;15.10;85.60
32506;DHT22;18955;51.224;8.482;2023-07-31T03:04:34;15.00;85.40
32506;DHT22;18955;51.224;8.482;2023-07-31T03:07:00;15.00;85.80
32506;DHT22;18955;51.224;8.482;2023-07-31T03:09:27;15.00;85.70
32506;DHT22;18955;51.224;8.482;2023-07-31T03:11:53;15.10;86.10
32506;DHT22;18955;51.224;8.482;2023-07-31T03:14:19;15.00;85.50
32506;DHT22;18955;51.224;8.482;2023-07-31T03:16:46;15.00;85.80
32506;DHT22;18955;51.224;8.482;2023-07-31T03:19:12;15.00;85.80
32506;DHT22;18955;51.224;8.482;2023-07-31T03:21:38;15.00;85.60
32506;DHT22;18955;51.224;8.482;2023-07-31T03:24:04;15.00;86.00
32506;DHT22;18955;51.224;8.482;2023-07-31T03:26:33;15.00;85.70
32506;DHT22;18955;51.224;8.482;2023-07-31T03:29:00;15.00;86.30
32506;DHT22;18955;51.224;8.482;2023-07-31T03:31:26;14.90;86.00
32506;DHT22;18955;51.224;8.482;2023-07-31T03:33:52;14.90;85.70
32506;DHT22;18955;51.224;8.482;2023-07-31T03:36:18;14.90;86.00
32506;DHT22;18955;51.224;8.482;2023-07-31T03:38:46;14.90;85.80
32506;DHT22;18955;51.224;8.482;2023-07-31T03:41:12;14.90;85.70
32506;DHT22;18955;51.224;8.482;2023-07-31T03:43:38;14.90;86.40
32506;DHT22;18955;51.224;8.482;2023-07-31T03:46:04;14.90;86.20
32506;DHT22;18955;51.224;8.482;2023-07-31T03:48:31;14.90;85.90
32506;DHT22;18955;51.224;8.482;2023-07-31T03:50:57;14.90;85.70
32506;DHT22;18955;51.224;8.482;2023-07-31T03:53:23;14.90;85.50
32506;DHT22;18955;51.224;8.482;2023-07-31T03:55:49;14.90;85.70
32506;DHT22;18955;51.224;8.482;2023-07-31T03:58:15;14.90;85.70
32506;DHT22;18955;51.224;8.482;2023-07-31T04:00:42;14.90;85.60
32506;DHT22;18955;51.224;8.482;2023-07-31T04:03:08;14.90;85.80
32506;DHT22;18955;51.224;8.482;2023-07-31T04:05:38;14.90;85.90
32506;DHT22;18955;51.224;8.482;2023-07-31T04:08:04;14.80;85.50
32506;DHT22;18955;51.224;8.482;2023-07-31T04:10:30;14.90;85.80
32506;DHT22;18955;51.224;8.482;2023-07-31T04:12:59;14.90;85.70
32506;DHT22;18955;51.224;8.482;2023-07-31T04:15:26;14.90;85.60
32506;DHT22;18955;51.224;8.482;2023-07-31T04:17:52;14.90;86.00
32506;DHT22;18955;51.224;8.482;2023-07-31T04:20:19;14.90;85.60
32506;DHT22;18955;51.224;8.482;2023-07-31T04:22:45;14.90;85.70
32506;DHT22;18955;51.224;8.482;2023-07-31T04:25:11;14.90;86.00
32506;DHT22;18955;51.224;8.482;2023-07-31T04:27:37;14.80;85.70
32506;DHT22;18955;51.224;8.482;2023-07-31T04:30:04;14.80;85.70
32506;DHT22;18955;51.224;8.482;2023-07-31T04:32:30;14.80;85.80
32506;DHT22;18955;51.224;8.482;2023-07-31T04:34:56;14.80;86.20
32506;DHT22;18955;51.224;8.482;2023-07-31T04:37:22;14.80;86.00
32506;DHT22;18955;51.224;8.482;2023-07-31T04:39:49;14.80;86.30
32506;DHT22;18955;51.224;8.482;2023-07-31T04:42:15;14.80;86.40
32506;DHT22;18955;51.224;8.482;2023-07-31T04:44:41;14.80;86.50
32506;DHT22;18955;51.224;8.482;2023-07-31T04:47:07;14.80;86.20
32506;DHT22;18955;51.224;8.482;2023-07-31T04:49:33;14.80;85.90
32506;DHT22;18955;51.224;8.482;2023-07-31T04:51:59;14.80;85.80
32506;DHT22;18955;51.224;8.482;2023-07-31T04:54:26;14.80;85.90
32506;DHT22;18955;51.224;8.482;2023-07-31T04:56:52;14.80;85.90
32506;DHT22;18955;51.224;8.482;2023-07-31T04:59:18;14.80;86.30
32506;DHT22;18955;51.224;8.482;2023-07-31T05:01:44;14.80;86.20
32506;DHT22;18955;51.224;8.482;2023-07-31T05:04:14;14.80;86.60
32506;DHT22;18955;51.224;8.482;2023-07-31T05:06:41;14.80;86.10
32506;DHT22;18955;51.224;8.482;2023-07-31T05:09:07;14.80;86.30
32506;DHT22;18955;51.224;8.482;2023-07-31T05:11:35;14.80;86.40
32506;DHT22;18955;51.224;8.482;2023-07-31T05:14:01;14.80;86.20
32506;DHT22;18955;51.224;8.482;2023-07-31T05:16:27;14.80;86.20
32506;DHT22;18955;51.224;8.482;2023-07-31T05:18:53;14.80;86.20
32506;DHT22;18955;51.224;8.482;2023-07-31T05:21:19;14.80;85.70
32506;DHT22;18955;51.224;8.482;2023-07-31T05:23:46;14.80;86.00
32506;DHT22;18955;51.224;8.482;2023-07-31T05:26:13;14.70;86.20
32506;DHT22;18955;51.224;8.482;2023-07-31T05:28:39;14.70;86.20
32506;DHT22;18955;51.224;8.482;2023-07-31T05:31:06;14.70;85.50
32506;DHT22;18955;51.224;8.482;2023-07-31T05:33:32;14.80;86.10
32506;DHT22;18955;51.224;8.482;2023-07-31T05:35:58;14.80;86.60
32506;DHT22;18955;51.224;8.482;2023-07-31T05:38:25;14.80;85.80
32506;DHT22;18955;51.224;8.482;2023-07-31T05:40:51;14.70;86.50
32506;DHT22;18955;51.224;8.482;2023-07-31T05:43:17;14.70;86.50
32506;DHT22;18955;51.224;8.482;2023-07-31T05:45:43;14.70;86.40
32506;DHT22;18955;51.224;8.482;2023-07-31T05:48:10;14.70;86.30
32506;DHT22;18955;51.224;8.482;2023-07-31T05:50:36;14.70;86.10
32506;DHT22;18955;51.224;8.482;2023-07-31T05:53:05;14.70;86.00
32506;DHT22;18955;51.224;8.482;2023-07-31T05:55:31;14.70;86.10
32506;DHT22;18955;51.224;8.482;2023-07-31T05:57:57;14.70;86.00
32506;DHT22;18955;51.224;8.482;2023-07-31T06:00:23;14.70;86.80
32506;DHT22;18955;51.224;8.482;2023-07-31T06:02:50;14.70;86.40
32506;DHT22;18955;51.224;8.482;2023-07-31T06:05:16;14.70;86.40
32506;DHT22;18955;51.224;8.482;2023-07-31T06:07:42;14.70;86.50
32506;DHT22;18955;51.224;8.482;2023-07-31T06:10:08;14.70;86.40
32506;DHT22;18955;51.224;8.482;2023-07-31T06:12:35;14.70;86.40
32506;DHT22;18955;51.224;8.482;2023-07-31T06:15:02;14.70;86.20
32506;DHT22;18955;51.224;8.482;2023-07-31T06:17:29;14.70;86.30
32506;DHT22;18955;51.224;8.482;2023-07-31T06:19:56;14.70;85.70
32506;DHT22;18955;51.224;8.482;2023-07-31T06:22:22;14.70;85.90
32506;DHT22;18955;51.224;8.482;2023-07-31T06:24:49;14.70;86.30
32506;DHT22;18955;51.224;8.482;2023-07-31T06:27:15;14.70;86.70
32506;DHT22;18955;51.224;8.482;2023-07-31T06:29:42;14.70;86.40
32506;DHT22;18955;51.224;8.482;2023-07-31T06:32:08;14.70;86.20
32506;DHT22;18955;51.224;8.482;2023-07-31T06:34:34;14.70;86.40
32506;DHT22;18955;51.224;8.482;2023-07-31T06:37:00;14.70;86.40
32506;DHT22;18955;51.224;8.482;2023-07-31T06:39:27;14.70;86.60
32506;DHT22;18955;51.224;8.482;2023-07-31T06:41:53;14.70;86.40
32506;DHT22;18955;51.224;8.482;2023-07-31T06:44:20;14.70;86.40
32506;DHT22;18955;51.224;8.482;2023-07-31T06:46:46;14.70;86.30
32506;DHT22;18955;51.224;8.482;2023-07-31T06:49:12;14.70;86.10
32506;DHT22;18955;51.224;8.482;2023-07-31T06:51:41;14.70;86.10
32506;DHT22;18955;51.224;8.482;2023-07-31T06:54:08;14.70;86.20
32506;DHT22;18955;51.224;8.482;2023-07-31T06:56:34;14.70;86.20
32506;DHT22;18955;51.224;8.482;2023-07-31T06:59:01;14.70;86.20
32506;DHT22;18955;51.224;8.482;2023-07-31T07:01:27;14.70;86.80
32506;DHT22;18955;51.224;8.482;2023-07-31T07:03:54;14.70;86.30
32506;DHT22;18955;51.224;8.482;2023-07-31T07:06:22;14.70;86.40
32506;DHT22;18955;51.224;8.482;2023-07-31T07:08:48;14.70;86.30
32506;DHT22;18955;51.224;8.482;2023-07-31T07:11:15;14.70;86.10
32506;DHT22;18955;51.224;8.482;2023-07-31T07:13:41;14.70;86.50
32506;DHT22;18955;51.224;8.482;2023-07-31T07:16:07;14.70;86.20
32506;DHT22;18955;51.224;8.482;2023-07-31T07:18:33;14.70;86.00
32506;DHT22;18955;51.224;8.482;2023-07-31T07:21:00;14.70;86.20
32506;DHT22;18955;51.224;8.482;2023-07-31T07:23:28;14.70;86.00
32506;DHT22;18955;51.224;8.482;2023-07-31T07:25:54;14.70;86.20
32506;DHT22;18955;51.224;8.482;2023-07-31T07:28:20;14.70;86.00
32506;DHT22;18955;51.224;8.482;2023-07-31T07:30:51;14.70;86.00
32506;DHT22;18955;51.224;8.482;2023-07-31T07:33:19;14.70;86.10
32506;DHT22;18955;51.224;8.482;2023-07-31T07:35:45;14.70;86.10
32506;DHT22;18955;51.224;8.482;2023-07-31T07:38:11;14.70;86.70
32506;DHT22;18955;51.224;8.482;2023-07-31T07:40:40;14.70;86.20
32506;DHT22;18955;51.224;8.482;2023-07-31T07:43:07;14.70;86.10
32506;DHT22;18955;51.224;8.482;2023-07-31T07:45:33;14.70;86.00
32506;DHT22;18955;51.224;8.482;2023-07-31T07:48:00;14.70;86.00
32506;DHT22;18955;51.224;8.482;2023-07-31T07:50:26;14.70;86.30
32506;DHT22;18955;51.224;8.482;2023-07-31T07:52:52;14.70;85.80
32506;DHT22;18955;51.224;8.482;2023-07-31T07:55:18;14.70;85.80
32506;DHT22;18955;51.224;8.482;2023-07-31T07:57:44;14.70;85.70
32506;DHT22;18955;51.224;8.482;2023-07-31T08:00:12;14.80;86.30
32506;DHT22;18955;51.224;8.482;2023-07-31T08:02:42;14.70;86.70
32506;DHT22;18955;51.224;8.482;2023-07-31T08:05:09;14.80;86.30
32506;DHT22;18955;51.224;8.482;2023-07-31T08:07:35;14.80;86.00
32506;DHT22;18955;51.224;8.482;2023-07-31T08:10:01;14.70;86.20
32506;DHT22;18955;51.224;8.482;2023-07-31T08:12:27;14.70;86.00
32506;DHT22;18955;51.224;8.482;2023-07-31T08:14:54;14.70;86.30
32506;DHT22;18955;51.224;8.482;2023-07-31T08:17:20;14.70;86.60
32506;DHT22;18955;51.224;8.482;2023-07-31T08:19:46;14.70;86.40
32506;DHT22;18955;51.224;8.482;2023-07-31T08:22:12;14.80;86.60
32506;DHT22;18955;51.224;8.482;2023-07-31T08:24:38;14.80;86.50
32506;DHT22;18955;51.224;8.482;2023-07-31T08:27:06;14.80;86.30
32506;DHT22;18955;51.224;8.482;2023-07-31T08:29:32;14.80;86.80
32506;DHT22;18955;51.224;8.482;2023-07-31T08:31:58;14.80;86.40
32506;DHT22;18955;51.224;8.482;2023-07-31T08:34:24;14.70;86.90
32506;DHT22;18955;51.224;8.482;2023-07-31T08:36:51;14.80;86.90
32506;DHT22;18955;51.224;8.482;2023-07-31T08:39:17;14.80;86.50
32506;DHT22;18955;51.224;8.482;2023-07-31T08:41:43;14.80;87.90
32506;DHT22;18955;51.224;8.482;2023-07-31T08:44:10;14.80;87.10
32506;DHT22;18955;51.224;8.482;2023-07-31T08:46:38;14.80;86.40
32506;DHT22;18955;51.224;8.482;2023-07-31T08:49:05;14.80;86.20
32506;DHT22;18955;51.224;8.482;2023-07-31T08:51:36;14.80;86.40
32506;DHT22;18955;51.224;8.482;2023-07-31T08:54:03;14.80;86.30
32506;DHT22;18955;51.224;8.482;2023-07-31T08:56:32;14.80;86.30
32506;DHT22;18955;51.224;8.482;2023-07-31T08:58:59;14.80;87.10
32506;DHT22;18955;51.224;8.482;2023-07-31T09:01:29;14.80;87.00
32506;DHT22;18955;51.224;8.482;2023-07-31T09:03:59;14.80;86.40
32506;DHT22;18955;51.224;8.482;2023-07-31T09:06:28;14.80;86.80
32506;DHT22;18955;51.224;8.482;2023-07-31T09:08:55;14.80;86.70
32506;DHT22;18955;51.224;8.482;2023-07-31T09:11:24;14.80;86.70
32506;DHT22;18955;51.224;8.482;2023-07-31T09:13:50;14.80;86.20
32506;DHT22;18955;51.224;8.482;2023-07-31T09:16:17;14.80;86.60
32506;DHT22;18955;51.224;8.482;2023-07-31T09:18:56;14.80;86.60
32506;DHT22;18955;51.224;8.482;2023-07-31T09:21:23;14.90;88.60
32506;DHT22;18955;51.224;8.482;2023-07-31T09:23:50;14.90;87.40
32506;DHT22;18955;51.224;8.482;2023-07-31T09:26:34;14.90;86.90
32506;DHT22;18955;51.224;8.482;2023-07-31T09:29:04;14.90;87.40
32506;DHT22;18955;51.224;8.482;2023-07-31T09:31:42;14.90;87.30
32506;DHT22;18955;51.224;8.482;2023-07-31T09:34:08;14.90;87.00
32506;DHT22;18955;51.224;8.482;2023-07-31T09:36:44;14.90;87.40
32506;DHT22;18955;51.224;8.482;2023-07-31T09:39:11;14.90;87.40
32506;DHT22;18955;51.224;8.482;2023-07-31T09:41:42;14.90;86.70
32506;DHT22;18955;51.224;8.482;2023-07-31T09:44:09;14.90;87.00
32506;DHT22;18955;51.224;8.482;2023-07-31T09:46:36;14.90;88.50
32506;DHT22;18955;51.224;8.482;2023-07-31T09:51:38;15.00;87.50
32506;DHT22;18955;51.224;8.482;2023-07-31T09:54:15;14.90;87.80
32506;DHT22;18955;51.224;8.482;2023-07-31T09:56:43;14.90;87.70
32506;DHT22;18955;51.224;8.482;2023-07-31T09:59:12;15.00;88.20
32506;DHT22;18955;51.224;8.482;2023-07-31T10:01:40;15.00;88.20
32506;DHT22;18955;51.224;8.482;2023-07-31T10:04:07;15.00;88.60
32506;DHT22;18955;51.224;8.482;2023-07-31T10:06:35;15.00;89.10
32506;DHT22;18955;51.224;8.482;2023-07-31T10:09:06;15.00;89.20
32506;DHT22;18955;51.224;8.482;2023-07-31T10:11:40;15.00;88.30
32506;DHT22;18955;51.224;8.482;2023-07-31T10:14:07;15.00;88.10
32506;DHT22;18955;51.224;8.482;2023-07-31T10:16:37;15.00;87.90
32506;DHT22;18955;51.224;8.482;2023-07-31T10:19:05;15.00;88.40
32506;DHT22;18955;51.224;8.482;2023-07-31T10:21:32;15.00;88.40
32506;DHT22;18955;51.224;8.482;2023-07-31T10:24:05;15.00;88.40
32506;DHT22;18955;51.224;8.482;2023-07-31T10:26:32;15.10;88.30
32506;DHT22;18955;51.224;8.482;2023-07-31T10:29:01;15.00;88.40
32506;DHT22;18955;51.224;8.482;2023-07-31T10:31:28;15.10;88.40
32506;DHT22;18955;51.224;8.482;2023-07-31T10:33:56;15.10;88.60
32506;DHT22;18955;51.224;8.482;2023-07-31T10:36:23;15.10;88.80
32506;DHT22;18955;51.224;8.482;2023-07-31T10:38:49;15.10;88.80
32506;DHT22;18955;51.224;8.482;2023-07-31T10:41:16;15.10;88.70
32506;DHT22;18955;51.224;8.482;2023-07-31T10:43:44;15.10;88.70
32506;DHT22;18955;51.224;8.482;2023-07-31T10:46:12;15.10;88.50
32506;DHT22;18955;51.224;8.482;2023-07-31T10:48:40;15.10;88.50
32506;DHT22;18955;51.224;8.482;2023-07-31T10:51:11;15.10;89.00
32506;DHT22;18955;51.224;8.482;2023-07-31T10:53:39;15.10;88.50
32506;DHT22;18955;51.224;8.482;2023-07-31T10:56:08;15.10;88.00
32506;DHT22;18955;51.224;8.482;2023-07-31T10:58:36;15.10;88.80
32506;DHT22;18955;51.224;8.482;2023-07-31T11:01:04;15.20;88.80
32506;DHT22;18955;51.224;8.482;2023-07-31T11:03:45;15.20;88.30
32506;DHT22;18955;51.224;8.482;2023-07-31T11:06:12;15.20;88.40
32506;DHT22;18955;51.224;8.482;2023-07-31T11:08:47;15.20;88.40
32506;DHT22;18955;51.224;8.482;2023-07-31T11:11:18;15.20;88.10
32506;DHT22;18955;51.224;8.482;2023-07-31T11:13:50;15.20;87.70
32506;DHT22;18955;51.224;8.482;2023-07-31T11:16:23;15.20;87.60
32506;DHT22;18955;51.224;8.482;2023-07-31T11:18:50;15.20;87.30
32506;DHT22;18955;51.224;8.482;2023-07-31T11:21:26;15.20;87.90
32506;DHT22;18955;51.224;8.482;2023-07-31T11:23:57;15.20;87.80
32506;DHT22;18955;51.224;8.482;2023-07-31T11:26:24;15.20;87.90
32506;DHT22;18955;51.224;8.482;2023-07-31T11:28:50;15.20;87.30
32506;DHT22;18955;51.224;8.482;2023-07-31T11:31:17;15.20;88.10
32506;DHT22;18955;51.224;8.482;2023-07-31T11:33:44;15.20;88.10
32506;DHT22;18955;51.224;8.482;2023-07-31T11:36:20;15.30;87.60
32506;DHT22;18955;51.224;8.482;2023-07-31T11:38:47;15.30;88.10
32506;DHT22;18955;51.224;8.482;2023-07-31T11:41:15;15.30;88.00
32506;DHT22;18955;51.224;8.482;2023-07-31T11:43:42;15.30;88.30
32506;DHT22;18955;51.224;8.482;2023-07-31T11:46:09;15.30;88.00
32506;DHT22;18955;51.224;8.482;2023-07-31T11:48:37;15.30;88.00
32506;DHT22;18955;51.224;8.482;2023-07-31T11:51:06;15.30;88.20
32506;DHT22;18955;51.224;8.482;2023-07-31T11:53:52;15.30;88.60
32506;DHT22;18955;51.224;8.482;2023-07-31T11:56:20;15.30;88.70
32506;DHT22;18955;51.224;8.482;2023-07-31T11:58:53;15.30;88.70
32506;DHT22;18955;51.224;8.482;2023-07-31T12:01:21;15.30;88.30
32506;DHT22;18955;51.224;8.482;2023-07-31T12:03:48;15.30;88.30
32506;DHT22;18955;51.224;8.482;2023-07-31T12:06:15;15.30;88.00
32506;DHT22;18955;51.224;8.482;2023-07-31T12:08:42;15.40;88.20
32506;DHT22;18955;51.224;8.482;2023-07-31T12:11:09;15.30;88.50
32506;DHT22;18955;51.224;8.482;2023-07-31T12:13:35;15.40;88.20
32506;DHT22;18955;51.224;8.482;2023-07-31T12:16:03;15.40;88.00
32506;DHT22;18955;51.224;8.482;2023-07-31T12:18:34;15.40;88.00
32506;DHT22;18955;51.224;8.482;2023-07-31T12:21:01;15.40;88.00
32506;DHT22;18955;51.224;8.482;2023-07-31T12:23:30;15.40;88.20
32506;DHT22;18955;51.224;8.482;2023-07-31T12:26:15;15.40;88.00
32506;DHT22;18955;51.224;8.482;2023-07-31T12:31:14;15.40;88.00
32506;DHT22;18955;51.224;8.482;2023-07-31T12:33:41;15.40;88.00
32506;DHT22;18955;51.224;8.482;2023-07-31T12:36:10;15.40;87.90
32506;DHT22;18955;51.224;8.482;2023-07-31T12:38:36;15.40;87.80
32506;DHT22;18955;51.224;8.482;2023-07-31T12:41:02;15.50;88.00
32506;DHT22;18955;51.224;8.482;2023-07-31T12:43:28;15.40;87.50
32506;DHT22;18955;51.224;8.482;2023-07-31T12:45:55;15.50;87.90
32506;DHT22;18955;51.224;8.482;2023-07-31T12:48:24;15.40;87.80
32506;DHT22;18955;51.224;8.482;2023-07-31T12:50:51;15.50;87.40
32506;DHT22;18955;51.224;8.482;2023-07-31T12:53:17;15.50;87.70
32506;DHT22;18955;51.224;8.482;2023-07-31T12:55:43;15.50;88.70
32506;DHT22;18955;51.224;8.482;2023-07-31T12:58:09;15.50;88.30
32506;DHT22;18955;51.224;8.482;2023-07-31T13:00:36;15.50;88.50
32506;DHT22;18955;51.224;8.482;2023-07-31T13:03:02;15.50;88.30
32506;DHT22;18955;51.224;8.482;2023-07-31T13:05:29;15.50;87.90
32506;DHT22;18955;51.224;8.482;2023-07-31T13:07:55;15.50;88.10
32506;DHT22;18955;51.224;8.482;2023-07-31T13:10:25;15.50;88.10
32506;DHT22;18955;51.224;8.482;2023-07-31T13:12:52;15.50;88.50
32506;DHT22;18955;51.224;8.482;2023-07-31T13:15:19;15.50;87.90
32506;DHT22;18955;51.224;8.482;2023-07-31T13:17:46;15.50;87.60
32506;DHT22;18955;51.224;8.482;2023-07-31T13:20:12;15.50;87.80
32506;DHT22;18955;51.224;8.482;2023-07-31T13:22:38;15.50;87.50
32506;DHT22;18955;51.224;8.482;2023-07-31T13:25:05;15.50;88.10
32506;DHT22;18955;51.224;8.482;2023-07-31T13:27:31;15.50;88.00
32506;DHT22;18955;51.224;8.482;2023-07-31T13:29:57;15.50;87.90
32506;DHT22;18955;51.224;8.482;2023-07-31T13:32:24;15.50;88.10
32506;DHT22;18955;51.224;8.482;2023-07-31T13:34:51;15.50;88.10
32506;DHT22;18955;51.224;8.482;2023-07-31T13:37:17;15.50;88.20
32506;DHT22;18955;51.224;8.482;2023-07-31T13:39:43;15.50;87.70
32506;DHT22;18955;51.224;8.482;2023-07-31T13:42:10;15.50;88.30
32506;DHT22;18955;51.224;8.482;2023-07-31T13:44:42;15.50;88.30
32506;DHT22;18955;51.224;8.482;2023-07-31T13:47:09;15.50;88.10
32506;DHT22;18955;51.224;8.482;2023-07-31T13:49:36;15.60;88.10
32506;DHT22;18955;51.224;8.482;2023-07-31T13:52:02;15.60;87.70
32506;DHT22;18955;51.224;8.482;2023-07-31T13:54:29;15.60;87.20
32506;DHT22;18955;51.224;8.482;2023-07-31T13:56:55;15.60;88.00
32506;DHT22;18955;51.224;8.482;2023-07-31T13:59:22;15.60;87.70
32506;DHT22;18955;51.224;8.482;2023-07-31T14:01:48;15.60;87.40
32506;DHT22;18955;51.224;8.482;2023-07-31T14:04:14;15.60;87.60
32506;DHT22;18955;51.224;8.482;2023-07-31T14:06:40;15.60;88.10
32506;DHT22;18955;51.224;8.482;2023-07-31T14:09:06;15.60;88.00
32506;DHT22;18955;51.224;8.482;2023-07-31T14:11:33;15.60;87.90
32506;DHT22;18955;51.224;8.482;2023-07-31T14:14:00;15.60;88.10
32506;DHT22;18955;51.224;8.482;2023-07-31T14:16:27;15.60;87.80
32506;DHT22;18955;51.224;8.482;2023-07-31T14:18:54;15.60;87.90
32506;DHT22;18955;51.224;8.482;2023-07-31T14:21:20;15.60;86.90
32506;DHT22;18955;51.224;8.482;2023-07-31T14:23:46;15.60;87.30
32506;DHT22;18955;51.224;8.482;2023-07-31T14:26:13;15.60;88.30
32506;DHT22;18955;51.224;8.482;2023-07-31T14:28:39;15.60;88.20
32506;DHT22;18955;51.224;8.482;2023-07-31T14:31:05;15.60;88.60
32506;DHT22;18955;51.224;8.482;2023-07-31T14:33:32;15.60;88.00
32506;DHT22;18955;51.224;8.482;2023-07-31T14:35:58;15.60;88.10
32506;DHT22;18955;51.224;8.482;2023-07-31T14:38:25;15.60;88.40
32506;DHT22;18955;51.224;8.482;2023-07-31T14:40:51;15.60;88.00
32506;DHT22;18955;51.224;8.482;2023-07-31T14:43:17;15.60;88.20
32506;DHT22;18955;51.224;8.482;2023-07-31T14:45:43;15.60;88.10
32506;DHT22;18955;51.224;8.482;2023-07-31T14:48:12;15.60;88.60
32506;DHT22;18955;51.224;8.482;2023-07-31T14:50:39;15.60;88.10
32506;DHT22;18955;51.224;8.482;2023-07-31T14:53:05;15.60;88.20
32506;DHT22;18955;51.224;8.482;2023-07-31T14:55:31;15.60;88.00
32506;DHT22;18955;51.224;8.482;2023-07-31T14:57:57;15.60;88.70
32506;DHT22;18955;51.224;8.482;2023-07-31T15:00:23;15.60;88.90
32506;DHT22;18955;51.224;8.482;2023-07-31T15:02:50;15.60;88.40
32506;DHT22;18955;51.224;8.482;2023-07-31T15:05:16;15.60;88.20
32506;DHT22;18955;51.224;8.482;2023-07-31T15:07:43;15.60;89.30
32506;DHT22;18955;51.224;8.482;2023-07-31T15:10:09;15.70;89.10
32506;DHT22;18955;51.224;8.482;2023-07-31T15:12:35;15.70;89.20
32506;DHT22;18955;51.224;8.482;2023-07-31T15:15:04;15.70;88.70
32506;DHT22;18955;51.224;8.482;2023-07-31T15:17:30;15.70;89.00
32506;DHT22;18955;51.224;8.482;2023-07-31T15:19:56;15.70;89.70
32506;DHT22;18955;51.224;8.482;2023-07-31T15:22:23;15.70;88.20
32506;DHT22;18955;51.224;8.482;2023-07-31T15:24:49;15.70;88.20
32506;DHT22;18955;51.224;8.482;2023-07-31T15:27:15;15.70;88.60
32506;DHT22;18955;51.224;8.482;2023-07-31T15:29:41;15.70;89.10
32506;DHT22;18955;51.224;8.482;2023-07-31T15:32:08;15.70;88.70
32506;DHT22;18955;51.224;8.482;2023-07-31T15:34:34;15.70;89.10
32506;DHT22;18955;51.224;8.482;2023-07-31T15:37:00;15.70;89.20
32506;DHT22;18955;51.224;8.482;2023-07-31T15:39:27;15.70;89.10
32506;DHT22;18955;51.224;8.482;2023-07-31T15:41:53;15.70;89.00
32506;DHT22;18955;51.224;8.482;2023-07-31T15:44:19;15.70;88.70
32506;DHT22;18955;51.224;8.482;2023-07-31T15:46:47;15.70;89.00
32506;DHT22;18955;51.224;8.482;2023-07-31T15:49:14;15.70;89.30